sensor_id;sensor_type;location;lat;lon;timestamp;P1;durP1;ratioP1;P2;durP2;ratioP2
60730;SDS011;46580;52.114;11.674;2023-03-23T00:01:00;4.50;;;1.27;;
60730;SDS011;46580;52.114;11.674;2023-03-23T00:03:25;2.37;;;1.40;;
60730;SDS011;46580;52.114;11.674;2023-03-23T00:05:53;2.33;;;1.30;;
60730;SDS011;46580;52.114;11.674;2023-03-23T00:08:24;2.67;;;1.80;;
60730;SDS011;46580;52.114;11.674;2023-03-23T00:10:51;2.47;;;1.47;;
60730;SDS011;46580;52.114;11.674;2023-03-23T00:13:21;4.03;;;1.40;;
60730;SDS011;46580;52.114;11.674;2023-03-23T00:15:47;1.37;;;1.00;;
60730;SDS011;46580;52.114;11.674;2023-03-23T00:18:14;1.77;;;1.53;;
60730;SDS011;46580;52.114;11.674;2023-03-23T00:20:50;1.57;;;1.27;;
60730;SDS011;46580;52.114;11.674;2023-03-23T00:23:20;2.07;;;1.23;;
60730;SDS011;46580;52.114;11.674;2023-03-23T00:25:48;3.87;;;1.30;;
60730;SDS011;46580;52.114;11.674;2023-03-23T00:28:18;1.70;;;1.10;;
60730;SDS011;46580;52.114;11.674;2023-03-23T00:30:53;1.10;;;1.00;;
60730;SDS011;46580;52.114;11.674;2023-03-23T00:33:31;2.37;;;0.77;;
60730;SDS011;46580;52.114;11.674;2023-03-23T00:36:06;1.80;;;1.17;;
60730;SDS011;46580;52.114;11.674;2023-03-23T00:38:33;2.80;;;0.90;;
60730;SDS011;46580;52.114;11.674;2023-03-23T00:41:00;1.63;;;0.83;;
60730;SDS011;46580;52.114;11.674;2023-03-23T00:43:28;1.63;;;1.10;;
60730;SDS011;46580;52.114;11.674;2023-03-23T00:45:54;2.97;;;1.00;;
60730;SDS011;46580;52.114;11.674;2023-03-23T00:48:20;0.73;;;0.73;;
60730;SDS011;46580;52.114;11.674;2023-03-23T00:50:50;2.57;;;0.90;;
60730;SDS011;46580;52.114;11.674;2023-03-23T00:53:16;3.53;;;1.10;;
60730;SDS011;46580;52.114;11.674;2023-03-23T00:55:43;1.30;;;0.90;;
60730;SDS011;46580;52.114;11.674;2023-03-23T00:58:12;4.27;;;1.30;;
60730;SDS011;46580;52.114;11.674;2023-03-23T01:00:39;1.10;;;1.00;;
60730;SDS011;46580;52.114;11.674;2023-03-23T01:03:05;3.00;;;1.10;;
60730;SDS011;46580;52.114;11.674;2023-03-23T01:05:35;2.10;;;1.30;;
60730;SDS011;46580;52.114;11.674;2023-03-23T01:08:02;2.00;;;1.10;;
60730;SDS011;46580;52.114;11.674;2023-03-23T01:10:28;1.73;;;0.93;;
60730;SDS011;46580;52.114;11.674;2023-03-23T01:12:57;2.57;;;0.90;;
60730;SDS011;46580;52.114;11.674;2023-03-23T01:15:24;2.27;;;0.97;;
60730;SDS011;46580;52.114;11.674;2023-03-23T01:17:50;2.03;;;1.37;;
60730;SDS011;46580;52.114;11.674;2023-03-23T01:20:15;2.20;;;1.30;;
60730;SDS011;46580;52.114;11.674;2023-03-23T01:22:41;1.93;;;1.20;;
60730;SDS011;46580;52.114;11.674;2023-03-23T01:25:07;2.17;;;1.20;;
60730;SDS011;46580;52.114;11.674;2023-03-23T01:27:34;1.17;;;1.00;;
60730;SDS011;46580;52.114;11.674;2023-03-23T01:29:59;2.20;;;1.37;;
60730;SDS011;46580;52.114;11.674;2023-03-23T01:32:25;2.07;;;1.20;;
60730;SDS011;46580;52.114;11.674;2023-03-23T01:34:51;1.50;;;1.10;;
60730;SDS011;46580;52.114;11.674;2023-03-23T01:37:16;1.97;;;1.07;;
60730;SDS011;46580;52.114;11.674;2023-03-23T01:39:42;2.27;;;1.10;;
60730;SDS011;46580;52.114;11.674;2023-03-23T01:42:10;2.37;;;0.63;;
60730;SDS011;46580;52.114;11.674;2023-03-23T01:47:01;1.10;;;1.00;;
60730;SDS011;46580;52.114;11.674;2023-03-23T01:49:32;3.13;;;1.20;;
60730;SDS011;46580;52.114;11.674;2023-03-23T01:52:06;1.43;;;0.80;;
60730;SDS011;46580;52.114;11.674;2023-03-23T01:54:37;1.47;;;0.80;;
60730;SDS011;46580;52.114;11.674;2023-03-23T01:59:39;1.80;;;0.77;;
60730;SDS011;46580;52.114;11.674;2023-03-23T02:02:09;1.07;;;0.77;;
60730;SDS011;46580;52.114;11.674;2023-03-23T02:04:35;0.97;;;0.57;;
60730;SDS011;46580;52.114;11.674;2023-03-23T02:07:01;1.50;;;0.80;;
60730;SDS011;46580;52.114;11.674;2023-03-23T02:09:28;1.73;;;1.10;;
60730;SDS011;46580;52.114;11.674;2023-03-23T02:11:54;2.27;;;1.20;;
60730;SDS011;46580;52.114;11.674;2023-03-23T02:14:21;3.97;;;1.20;;
60730;SDS011;46580;52.114;11.674;2023-03-23T02:17:08;2.73;;;1.13;;
60730;SDS011;46580;52.114;11.674;2023-03-23T02:25:18;2.20;;;1.10;;
60730;SDS011;46580;52.114;11.674;2023-03-23T02:31:05;1.57;;;0.87;;
60730;SDS011;46580;52.114;11.674;2023-03-23T02:34:09;2.43;;;1.10;;
60730;SDS011;46580;52.114;11.674;2023-03-23T02:36:45;1.13;;;0.77;;
60730;SDS011;46580;52.114;11.674;2023-03-23T02:39:24;1.43;;;1.00;;
60730;SDS011;46580;52.114;11.674;2023-03-23T02:41:56;5.27;;;1.13;;
60730;SDS011;46580;52.114;11.674;2023-03-23T02:44:26;2.57;;;0.80;;
60730;SDS011;46580;52.114;11.674;2023-03-23T02:46:55;2.30;;;1.00;;
60730;SDS011;46580;52.114;11.674;2023-03-23T02:49:22;3.13;;;1.20;;
60730;SDS011;46580;52.114;11.674;2023-03-23T02:51:49;1.93;;;1.10;;
60730;SDS011;46580;52.114;11.674;2023-03-23T02:54:16;2.47;;;1.10;;
60730;SDS011;46580;52.114;11.674;2023-03-23T02:56:43;3.43;;;1.40;;
60730;SDS011;46580;52.114;11.674;2023-03-23T02:59:10;1.40;;;1.30;;
60730;SDS011;46580;52.114;11.674;2023-03-23T03:04:06;2.33;;;1.10;;
60730;SDS011;46580;52.114;11.674;2023-03-23T03:12:15;3.17;;;1.60;;
60730;SDS011;46580;52.114;11.674;2023-03-23T03:15:07;2.10;;;1.53;;
60730;SDS011;46580;52.114;11.674;2023-03-23T03:17:44;3.57;;;1.30;;
60730;SDS011;46580;52.114;11.674;2023-03-23T03:20:20;2.90;;;1.03;;
60730;SDS011;46580;52.114;11.674;2023-03-23T03:22:47;3.50;;;1.40;;
60730;SDS011;46580;52.114;11.674;2023-03-23T03:25:17;2.40;;;1.10;;
60730;SDS011;46580;52.114;11.674;2023-03-23T03:27:44;2.20;;;1.43;;
60730;SDS011;46580;52.114;11.674;2023-03-23T03:30:14;6.00;;;1.60;;
60730;SDS011;46580;52.114;11.674;2023-03-23T03:32:46;3.67;;;1.10;;
60730;SDS011;46580;52.114;11.674;2023-03-23T03:35:16;2.93;;;1.10;;
60730;SDS011;46580;52.114;11.674;2023-03-23T03:37:42;1.37;;;1.20;;
60730;SDS011;46580;52.114;11.674;2023-03-23T03:40:10;2.20;;;0.83;;
60730;SDS011;46580;52.114;11.674;2023-03-23T03:42:39;3.30;;;1.10;;
60730;SDS011;46580;52.114;11.674;2023-03-23T03:45:06;2.23;;;0.83;;
60730;SDS011;46580;52.114;11.674;2023-03-23T03:47:33;1.93;;;1.10;;
60730;SDS011;46580;52.114;11.674;2023-03-23T03:49:59;2.77;;;0.80;;
60730;SDS011;46580;52.114;11.674;2023-03-23T03:52:25;1.43;;;0.87;;
60730;SDS011;46580;52.114;11.674;2023-03-23T03:54:52;3.27;;;0.93;;
60730;SDS011;46580;52.114;11.674;2023-03-23T03:57:18;1.43;;;0.93;;
60730;SDS011;46580;52.114;11.674;2023-03-23T03:59:44;1.93;;;1.00;;
60730;SDS011;46580;52.114;11.674;2023-03-23T04:02:10;2.80;;;0.97;;
60730;SDS011;46580;52.114;11.674;2023-03-23T04:04:41;1.37;;;0.70;;
60730;SDS011;46580;52.114;11.674;2023-03-23T04:07:08;1.63;;;0.90;;
60730;SDS011;46580;52.114;11.674;2023-03-23T04:09:36;3.17;;;1.30;;
60730;SDS011;46580;52.114;11.674;2023-03-23T04:12:02;4.10;;;0.90;;
60730;SDS011;46580;52.114;11.674;2023-03-23T04:14:28;4.30;;;1.00;;
60730;SDS011;46580;52.114;11.674;2023-03-23T04:16:53;2.13;;;0.90;;
60730;SDS011;46580;52.114;11.674;2023-03-23T04:19:21;1.67;;;1.10;;
60730;SDS011;46580;52.114;11.674;2023-03-23T04:21:47;2.43;;;1.20;;
60730;SDS011;46580;52.114;11.674;2023-03-23T04:24:14;1.87;;;0.90;;
60730;SDS011;46580;52.114;11.674;2023-03-23T04:26:39;1.57;;;0.90;;
60730;SDS011;46580;52.114;11.674;2023-03-23T04:29:06;1.47;;;1.00;;
60730;SDS011;46580;52.114;11.674;2023-03-23T04:31:33;3.03;;;0.97;;
60730;SDS011;46580;52.114;11.674;2023-03-23T04:33:59;1.57;;;1.10;;
60730;SDS011;46580;52.114;11.674;2023-03-23T04:36:26;2.83;;;1.20;;
60730;SDS011;46580;52.114;11.674;2023-03-23T04:38:53;1.33;;;1.10;;
60730;SDS011;46580;52.114;11.674;2023-03-23T04:41:20;4.77;;;1.43;;
60730;SDS011;46580;52.114;11.674;2023-03-23T04:43:46;4.57;;;1.47;;
60730;SDS011;46580;52.114;11.674;2023-03-23T04:46:17;2.43;;;1.10;;
60730;SDS011;46580;52.114;11.674;2023-03-23T04:48:44;3.90;;;1.40;;
60730;SDS011;46580;52.114;11.674;2023-03-23T04:51:10;5.97;;;1.60;;
60730;SDS011;46580;52.114;11.674;2023-03-23T04:53:37;2.17;;;1.20;;
60730;SDS011;46580;52.114;11.674;2023-03-23T04:56:02;3.20;;;2.13;;
60730;SDS011;46580;52.114;11.674;2023-03-23T04:58:28;2.60;;;1.40;;
60730;SDS011;46580;52.114;11.674;2023-03-23T05:00:54;4.40;;;3.43;;
60730;SDS011;46580;52.114;11.674;2023-03-23T05:03:20;14.30;;;8.67;;
60730;SDS011;46580;52.114;11.674;2023-03-23T05:05:46;12.40;;;9.97;;
60730;SDS011;46580;52.114;11.674;2023-03-23T05:08:16;6.27;;;3.50;;
60730;SDS011;46580;52.114;11.674;2023-03-23T05:10:44;6.63;;;3.07;;
60730;SDS011;46580;52.114;11.674;2023-03-23T05:13:14;4.83;;;2.60;;
60730;SDS011;46580;52.114;11.674;2023-03-23T05:15:40;4.83;;;2.37;;
60730;SDS011;46580;52.114;11.674;2023-03-23T05:18:05;2.80;;;1.80;;
60730;SDS011;46580;52.114;11.674;2023-03-23T05:20:32;4.73;;;1.97;;
60730;SDS011;46580;52.114;11.674;2023-03-23T05:22:58;3.57;;;1.57;;
60730;SDS011;46580;52.114;11.674;2023-03-23T05:25:24;2.30;;;1.80;;
60730;SDS011;46580;52.114;11.674;2023-03-23T05:27:49;3.70;;;1.50;;
60730;SDS011;46580;52.114;11.674;2023-03-23T05:30:18;2.63;;;1.73;;
60730;SDS011;46580;52.114;11.674;2023-03-23T05:32:44;3.00;;;1.80;;
60730;SDS011;46580;52.114;11.674;2023-03-23T05:35:10;3.50;;;1.50;;
60730;SDS011;46580;52.114;11.674;2023-03-23T05:37:36;5.33;;;1.60;;
60730;SDS011;46580;52.114;11.674;2023-03-23T05:40:04;1.70;;;1.27;;
60730;SDS011;46580;52.114;11.674;2023-03-23T05:42:34;6.80;;;1.60;;
60730;SDS011;46580;52.114;11.674;2023-03-23T05:45:03;3.40;;;1.40;;
60730;SDS011;46580;52.114;11.674;2023-03-23T05:47:30;2.43;;;1.57;;
60730;SDS011;46580;52.114;11.674;2023-03-23T05:49:56;5.37;;;1.50;;
60730;SDS011;46580;52.114;11.674;2023-03-23T05:52:22;2.53;;;1.30;;
60730;SDS011;46580;52.114;11.674;2023-03-23T05:54:49;3.37;;;1.30;;
60730;SDS011;46580;52.114;11.674;2023-03-23T05:57:14;3.53;;;1.60;;
60730;SDS011;46580;52.114;11.674;2023-03-23T05:59:39;2.63;;;1.57;;
60730;SDS011;46580;52.114;11.674;2023-03-23T06:02:05;2.27;;;1.40;;
60730;SDS011;46580;52.114;11.674;2023-03-23T06:04:32;1.60;;;1.40;;
60730;SDS011;46580;52.114;11.674;2023-03-23T06:06:58;3.10;;;1.90;;
60730;SDS011;46580;52.114;11.674;2023-03-23T06:09:28;2.57;;;2.13;;
60730;SDS011;46580;52.114;11.674;2023-03-23T06:11:54;2.73;;;1.93;;
60730;SDS011;46580;52.114;11.674;2023-03-23T06:14:20;2.70;;;1.50;;
60730;SDS011;46580;52.114;11.674;2023-03-23T06:16:46;2.47;;;1.40;;
60730;SDS011;46580;52.114;11.674;2023-03-23T06:19:12;2.87;;;1.47;;
60730;SDS011;46580;52.114;11.674;2023-03-23T06:21:38;2.80;;;1.67;;
60730;SDS011;46580;52.114;11.674;2023-03-23T06:24:03;2.47;;;1.50;;
60730;SDS011;46580;52.114;11.674;2023-03-23T06:26:39;3.53;;;1.67;;
60730;SDS011;46580;52.114;11.674;2023-03-23T06:29:06;2.63;;;1.30;;
60730;SDS011;46580;52.114;11.674;2023-03-23T06:31:41;1.83;;;1.10;;
60730;SDS011;46580;52.114;11.674;2023-03-23T06:34:19;1.60;;;1.13;;
60730;SDS011;46580;52.114;11.674;2023-03-23T06:36:44;1.67;;;1.30;;
60730;SDS011;46580;52.114;11.674;2023-03-23T06:39:10;2.17;;;1.47;;
60730;SDS011;46580;52.114;11.674;2023-03-23T06:41:35;3.53;;;1.20;;
60730;SDS011;46580;52.114;11.674;2023-03-23T06:44:01;3.23;;;1.30;;
60730;SDS011;46580;52.114;11.674;2023-03-23T06:46:27;1.70;;;1.27;;
60730;SDS011;46580;52.114;11.674;2023-03-23T06:48:53;3.37;;;1.90;;
60730;SDS011;46580;52.114;11.674;2023-03-23T06:51:20;2.13;;;1.00;;
60730;SDS011;46580;52.114;11.674;2023-03-23T06:53:45;7.77;;;1.57;;
60730;SDS011;46580;52.114;11.674;2023-03-23T06:56:12;3.50;;;1.20;;
60730;SDS011;46580;52.114;11.674;2023-03-23T06:58:38;1.73;;;1.30;;
60730;SDS011;46580;52.114;11.674;2023-03-23T07:01:04;2.70;;;1.20;;
60730;SDS011;46580;52.114;11.674;2023-03-23T07:03:30;2.80;;;1.33;;
60730;SDS011;46580;52.114;11.674;2023-03-23T07:05:56;1.50;;;1.03;;
60730;SDS011;46580;52.114;11.674;2023-03-23T07:08:23;1.23;;;0.90;;
60730;SDS011;46580;52.114;11.674;2023-03-23T07:10:53;5.53;;;1.20;;
60730;SDS011;46580;52.114;11.674;2023-03-23T07:13:21;2.40;;;1.40;;
60730;SDS011;46580;52.114;11.674;2023-03-23T07:15:46;1.43;;;0.97;;
60730;SDS011;46580;52.114;11.674;2023-03-23T07:18:13;2.07;;;1.37;;
60730;SDS011;46580;52.114;11.674;2023-03-23T07:20:38;2.73;;;1.20;;
60730;SDS011;46580;52.114;11.674;2023-03-23T07:23:04;2.37;;;1.30;;
60730;SDS011;46580;52.114;11.674;2023-03-23T07:25:32;2.13;;;1.30;;
60730;SDS011;46580;52.114;11.674;2023-03-23T07:27:59;3.33;;;1.00;;
60730;SDS011;46580;52.114;11.674;2023-03-23T07:30:26;2.63;;;1.20;;
60730;SDS011;46580;52.114;11.674;2023-03-23T07:32:54;3.50;;;1.10;;
60730;SDS011;46580;52.114;11.674;2023-03-23T07:35:21;2.37;;;1.03;;
60730;SDS011;46580;52.114;11.674;2023-03-23T07:37:47;2.20;;;1.07;;
60730;SDS011;46580;52.114;11.674;2023-03-23T07:40:14;1.90;;;1.07;;
60730;SDS011;46580;52.114;11.674;2023-03-23T07:42:44;1.20;;;1.00;;
60730;SDS011;46580;52.114;11.674;2023-03-23T07:45:12;2.17;;;1.00;;
60730;SDS011;46580;52.114;11.674;2023-03-23T07:47:38;1.53;;;0.93;;
60730;SDS011;46580;52.114;11.674;2023-03-23T07:50:05;1.47;;;0.80;;
60730;SDS011;46580;52.114;11.674;2023-03-23T07:52:32;3.33;;;1.10;;
60730;SDS011;46580;52.114;11.674;2023-03-23T07:55:00;1.30;;;0.73;;
60730;SDS011;46580;52.114;11.674;2023-03-23T07:57:29;1.47;;;1.00;;
60730;SDS011;46580;52.114;11.674;2023-03-23T07:59:55;1.53;;;0.90;;
60730;SDS011;46580;52.114;11.674;2023-03-23T08:02:22;3.73;;;1.10;;
60730;SDS011;46580;52.114;11.674;2023-03-23T08:04:48;1.87;;;0.90;;
60730;SDS011;46580;52.114;11.674;2023-03-23T08:07:15;1.20;;;0.87;;
60730;SDS011;46580;52.114;11.674;2023-03-23T08:09:42;1.00;;;0.73;;
60730;SDS011;46580;52.114;11.674;2023-03-23T08:12:08;1.03;;;0.70;;
60730;SDS011;46580;52.114;11.674;2023-03-23T08:14:35;2.77;;;0.97;;
60730;SDS011;46580;52.114;11.674;2023-03-23T08:17:00;1.67;;;0.90;;
60730;SDS011;46580;52.114;11.674;2023-03-23T08:19:26;1.90;;;1.20;;
60730;SDS011;46580;52.114;11.674;2023-03-23T08:21:51;3.93;;;1.20;;
60730;SDS011;46580;52.114;11.674;2023-03-23T08:24:17;1.33;;;0.70;;
60730;SDS011;46580;52.114;11.674;2023-03-23T08:26:43;2.00;;;1.17;;
60730;SDS011;46580;52.114;11.674;2023-03-23T08:29:10;2.30;;;1.00;;
60730;SDS011;46580;52.114;11.674;2023-03-23T08:31:37;3.10;;;0.97;;
60730;SDS011;46580;52.114;11.674;2023-03-23T08:34:04;1.07;;;0.70;;
60730;SDS011;46580;52.114;11.674;2023-03-23T08:36:30;1.40;;;0.73;;
60730;SDS011;46580;52.114;11.674;2023-03-23T08:38:57;0.70;;;0.70;;
60730;SDS011;46580;52.114;11.674;2023-03-23T08:41:23;1.30;;;0.80;;
60730;SDS011;46580;52.114;11.674;2023-03-23T08:43:48;2.13;;;1.10;;
60730;SDS011;46580;52.114;11.674;2023-03-23T08:46:14;3.43;;;1.07;;
60730;SDS011;46580;52.114;11.674;2023-03-23T08:48:40;1.17;;;0.70;;
60730;SDS011;46580;52.114;11.674;2023-03-23T08:51:08;1.10;;;0.90;;
60730;SDS011;46580;52.114;11.674;2023-03-23T08:53:35;1.73;;;1.00;;
60730;SDS011;46580;52.114;11.674;2023-03-23T08:56:05;2.00;;;0.80;;
60730;SDS011;46580;52.114;11.674;2023-03-23T08:58:37;1.33;;;0.90;;
60730;SDS011;46580;52.114;11.674;2023-03-23T09:01:03;2.63;;;0.87;;
60730;SDS011;46580;52.114;11.674;2023-03-23T09:03:31;1.47;;;1.00;;
60730;SDS011;46580;52.114;11.674;2023-03-23T09:06:00;5.07;;;1.10;;
60730;SDS011;46580;52.114;11.674;2023-03-23T09:08:27;1.53;;;0.90;;
60730;SDS011;46580;52.114;11.674;2023-03-23T09:10:59;1.60;;;1.07;;
60730;SDS011;46580;52.114;11.674;2023-03-23T09:13:28;2.47;;;0.80;;
60730;SDS011;46580;52.114;11.674;2023-03-23T09:15:54;2.80;;;1.03;;
60730;SDS011;46580;52.114;11.674;2023-03-23T09:18:20;1.83;;;1.10;;
60730;SDS011;46580;52.114;11.674;2023-03-23T09:20:46;2.13;;;1.00;;
60730;SDS011;46580;52.114;11.674;2023-03-23T09:23:14;2.20;;;0.93;;
60730;SDS011;46580;52.114;11.674;2023-03-23T09:25:40;1.90;;;0.90;;
60730;SDS011;46580;52.114;11.674;2023-03-23T09:28:06;2.33;;;0.77;;
60730;SDS011;46580;52.114;11.674;2023-03-23T09:30:32;3.27;;;1.20;;
60730;SDS011;46580;52.114;11.674;2023-03-23T09:33:00;1.37;;;0.93;;
60730;SDS011;46580;52.114;11.674;2023-03-23T09:35:26;4.13;;;1.10;;
60730;SDS011;46580;52.114;11.674;2023-03-23T09:37:52;3.30;;;1.40;;
60730;SDS011;46580;52.114;11.674;2023-03-23T09:40:25;3.00;;;0.73;;
60730;SDS011;46580;52.114;11.674;2023-03-23T09:51:14;1.80;;;0.80;;
60730;SDS011;46580;52.114;11.674;2023-03-23T09:53:42;2.30;;;0.93;;
60730;SDS011;46580;52.114;11.674;2023-03-23T09:56:14;4.53;;;0.90;;
60730;SDS011;46580;52.114;11.674;2023-03-23T09:58:51;3.07;;;0.90;;
60730;SDS011;46580;52.114;11.674;2023-03-23T10:01:25;1.23;;;0.60;;
60730;SDS011;46580;52.114;11.674;2023-03-23T10:04:03;2.63;;;0.60;;
60730;SDS011;46580;52.114;11.674;2023-03-23T10:06:36;1.43;;;0.60;;
60730;SDS011;46580;52.114;11.674;2023-03-23T10:09:02;1.47;;;0.80;;
60730;SDS011;46580;52.114;11.674;2023-03-23T10:11:47;2.17;;;0.83;;
60730;SDS011;46580;52.114;11.674;2023-03-23T10:19:47;2.10;;;0.97;;
60730;SDS011;46580;52.114;11.674;2023-03-23T10:22:20;1.80;;;1.03;;
60730;SDS011;46580;52.114;11.674;2023-03-23T10:30:17;1.63;;;0.80;;
60730;SDS011;46580;52.114;11.674;2023-03-23T10:32:52;2.07;;;1.10;;
60730;SDS011;46580;52.114;11.674;2023-03-23T10:35:43;2.07;;;0.93;;
60730;SDS011;46580;52.114;11.674;2023-03-23T10:38:43;1.90;;;1.00;;
60730;SDS011;46580;52.114;11.674;2023-03-23T10:41:22;2.00;;;1.20;;
60730;SDS011;46580;52.114;11.674;2023-03-23T10:43:47;3.87;;;1.20;;
60730;SDS011;46580;52.114;11.674;2023-03-23T10:46:35;1.37;;;0.93;;
60730;SDS011;46580;52.114;11.674;2023-03-23T10:49:12;1.67;;;0.97;;
60730;SDS011;46580;52.114;11.674;2023-03-23T10:51:43;1.33;;;1.00;;
60730;SDS011;46580;52.114;11.674;2023-03-23T10:54:23;1.53;;;1.03;;
60730;SDS011;46580;52.114;11.674;2023-03-23T10:56:52;2.03;;;1.00;;
60730;SDS011;46580;52.114;11.674;2023-03-23T10:59:20;2.23;;;0.80;;
60730;SDS011;46580;52.114;11.674;2023-03-23T11:01:52;1.53;;;0.80;;
60730;SDS011;46580;52.114;11.674;2023-03-23T11:04:22;2.60;;;1.03;;
60730;SDS011;46580;52.114;11.674;2023-03-23T11:06:49;3.77;;;0.97;;
60730;SDS011;46580;52.114;11.674;2023-03-23T11:09:18;3.60;;;1.13;;
60730;SDS011;46580;52.114;11.674;2023-03-23T11:11:50;1.97;;;1.00;;
60730;SDS011;46580;52.114;11.674;2023-03-23T11:16:53;3.47;;;1.00;;
60730;SDS011;46580;52.114;11.674;2023-03-23T11:19:29;1.93;;;0.90;;
60730;SDS011;46580;52.114;11.674;2023-03-23T11:22:39;1.10;;;0.93;;
60730;SDS011;46580;52.114;11.674;2023-03-23T11:24:59;5.20;;;1.00;;
60730;SDS011;46580;52.114;11.674;2023-03-23T11:27:28;2.17;;;1.00;;
60730;SDS011;46580;52.114;11.674;2023-03-23T11:30:40;3.47;;;1.33;;
60730;SDS011;46580;52.114;11.674;2023-03-23T11:32:55;2.17;;;0.87;;
60730;SDS011;46580;52.114;11.674;2023-03-23T11:35:27;3.37;;;1.10;;
60730;SDS011;46580;52.114;11.674;2023-03-23T11:37:57;1.70;;;1.07;;
60730;SDS011;46580;52.114;11.674;2023-03-23T11:40:26;1.17;;;0.90;;
60730;SDS011;46580;52.114;11.674;2023-03-23T11:45:33;2.20;;;1.00;;
60730;SDS011;46580;52.114;11.674;2023-03-23T11:53:27;2.50;;;1.10;;
60730;SDS011;46580;52.114;11.674;2023-03-23T11:56:03;1.53;;;1.30;;
60730;SDS011;46580;52.114;11.674;2023-03-23T11:58:33;7.03;;;1.13;;
60730;SDS011;46580;52.114;11.674;2023-03-23T12:01:04;1.23;;;0.87;;
60730;SDS011;46580;52.114;11.674;2023-03-23T12:03:56;4.37;;;1.13;;
60730;SDS011;46580;52.114;11.674;2023-03-23T12:06:32;1.77;;;0.87;;
60730;SDS011;46580;52.114;11.674;2023-03-23T12:12:31;2.33;;;1.00;;
60730;SDS011;46580;52.114;11.674;2023-03-23T12:21:18;2.77;;;0.93;;
60730;SDS011;46580;52.114;11.674;2023-03-23T12:24:00;6.33;;;1.07;;
60730;SDS011;46580;52.114;11.674;2023-03-23T12:26:37;1.90;;;1.00;;
60730;SDS011;46580;52.114;11.674;2023-03-23T12:29:17;3.30;;;0.80;;
60730;SDS011;46580;52.114;11.674;2023-03-23T12:31:53;2.30;;;0.70;;
60730;SDS011;46580;52.114;11.674;2023-03-23T12:34:40;2.47;;;1.10;;
60730;SDS011;46580;52.114;11.674;2023-03-23T12:37:17;5.43;;;1.00;;
60730;SDS011;46580;52.114;11.674;2023-03-23T12:48:09;3.10;;;0.70;;
60730;SDS011;46580;52.114;11.674;2023-03-23T12:51:00;3.30;;;0.87;;
60730;SDS011;46580;52.114;11.674;2023-03-23T12:53:34;1.93;;;0.60;;
60730;SDS011;46580;52.114;11.674;2023-03-23T12:58:43;0.90;;;0.70;;
60730;SDS011;46580;52.114;11.674;2023-03-23T13:06:55;3.57;;;0.90;;
60730;SDS011;46580;52.114;11.674;2023-03-23T13:11:55;4.00;;;0.50;;
60730;SDS011;46580;52.114;11.674;2023-03-23T13:14:32;3.57;;;1.00;;
60730;SDS011;46580;52.114;11.674;2023-03-23T13:17:17;2.87;;;0.73;;
60730;SDS011;46580;52.114;11.674;2023-03-23T13:22:44;6.33;;;0.83;;
60730;SDS011;46580;52.114;11.674;2023-03-23T13:25:24;1.63;;;0.90;;
60730;SDS011;46580;52.114;11.674;2023-03-23T13:27:57;1.63;;;0.83;;
60730;SDS011;46580;52.114;11.674;2023-03-23T13:30:26;2.00;;;1.03;;
60730;SDS011;46580;52.114;11.674;2023-03-23T13:33:00;1.63;;;0.63;;
60730;SDS011;46580;52.114;11.674;2023-03-23T13:35:32;2.27;;;0.77;;
60730;SDS011;46580;52.114;11.674;2023-03-23T13:38:00;1.87;;;0.97;;
60730;SDS011;46580;52.114;11.674;2023-03-23T13:40:30;3.17;;;1.17;;
60730;SDS011;46580;52.114;11.674;2023-03-23T13:42:59;4.20;;;1.10;;
60730;SDS011;46580;52.114;11.674;2023-03-23T13:50:50;6.03;;;1.03;;
60730;SDS011;46580;52.114;11.674;2023-03-23T13:53:28;3.20;;;0.90;;
60730;SDS011;46580;52.114;11.674;2023-03-23T13:58:49;3.23;;;0.90;;
60730;SDS011;46580;52.114;11.674;2023-03-23T14:01:42;2.00;;;0.83;;
60730;SDS011;46580;52.114;11.674;2023-03-23T14:04:12;4.00;;;1.10;;
60730;SDS011;46580;52.114;11.674;2023-03-23T14:06:52;2.30;;;0.60;;
60730;SDS011;46580;52.114;11.674;2023-03-23T14:09:19;8.63;;;1.00;;
60730;SDS011;46580;52.114;11.674;2023-03-23T14:11:57;2.43;;;0.90;;
60730;SDS011;46580;52.114;11.674;2023-03-23T14:14:31;3.80;;;0.90;;
60730;SDS011;46580;52.114;11.674;2023-03-23T14:17:36;2.97;;;1.00;;
60730;SDS011;46580;52.114;11.674;2023-03-23T14:19:55;2.23;;;0.80;;
60730;SDS011;46580;52.114;11.674;2023-03-23T14:22:26;2.27;;;0.70;;
60730;SDS011;46580;52.114;11.674;2023-03-23T14:25:16;3.57;;;1.20;;
60730;SDS011;46580;52.114;11.674;2023-03-23T14:27:45;5.00;;;1.17;;
60730;SDS011;46580;52.114;11.674;2023-03-23T14:30:15;3.30;;;0.97;;
60730;SDS011;46580;52.114;11.674;2023-03-23T14:32:44;7.00;;;1.13;;
60730;SDS011;46580;52.114;11.674;2023-03-23T14:37:55;2.20;;;1.20;;
60730;SDS011;46580;52.114;11.674;2023-03-23T14:40:21;1.70;;;0.60;;
60730;SDS011;46580;52.114;11.674;2023-03-23T14:42:47;2.90;;;0.93;;
60730;SDS011;46580;52.114;11.674;2023-03-23T14:45:16;2.47;;;0.93;;
60730;SDS011;46580;52.114;11.674;2023-03-23T14:47:44;3.70;;;0.90;;
60730;SDS011;46580;52.114;11.674;2023-03-23T14:55:46;2.07;;;0.63;;
60730;SDS011;46580;52.114;11.674;2023-03-23T14:58:13;1.80;;;0.60;;
60730;SDS011;46580;52.114;11.674;2023-03-23T15:00:41;1.37;;;0.63;;
60730;SDS011;46580;52.114;11.674;2023-03-23T15:03:12;1.37;;;0.50;;
60730;SDS011;46580;52.114;11.674;2023-03-23T15:05:42;1.10;;;0.80;;
60730;SDS011;46580;52.114;11.674;2023-03-23T15:08:17;2.37;;;0.60;;
60730;SDS011;46580;52.114;11.674;2023-03-23T15:10:52;4.57;;;0.90;;
60730;SDS011;46580;52.114;11.674;2023-03-23T15:13:27;1.90;;;0.73;;
60730;SDS011;46580;52.114;11.674;2023-03-23T15:15:52;1.63;;;0.40;;
60730;SDS011;46580;52.114;11.674;2023-03-23T15:18:36;0.83;;;0.43;;
60730;SDS011;46580;52.114;11.674;2023-03-23T15:21:10;2.47;;;0.70;;
60730;SDS011;46580;52.114;11.674;2023-03-23T15:23:45;1.47;;;0.70;;
60730;SDS011;46580;52.114;11.674;2023-03-23T15:26:18;2.10;;;0.30;;
60730;SDS011;46580;52.114;11.674;2023-03-23T15:28:49;1.53;;;0.77;;
60730;SDS011;46580;52.114;11.674;2023-03-23T15:31:14;1.27;;;0.67;;
60730;SDS011;46580;52.114;11.674;2023-03-23T15:33:40;1.57;;;0.73;;
60730;SDS011;46580;52.114;11.674;2023-03-23T15:36:24;1.03;;;0.40;;
60730;SDS011;46580;52.114;11.674;2023-03-23T15:38:49;1.67;;;0.50;;
60730;SDS011;46580;52.114;11.674;2023-03-23T15:41:25;0.40;;;0.40;;
60730;SDS011;46580;52.114;11.674;2023-03-23T15:43:54;1.37;;;0.40;;
60730;SDS011;46580;52.114;11.674;2023-03-23T15:46:27;1.37;;;0.50;;
60730;SDS011;46580;52.114;11.674;2023-03-23T15:51:25;2.83;;;0.40;;
60730;SDS011;46580;52.114;11.674;2023-03-23T15:53:54;2.17;;;0.57;;
60730;SDS011;46580;52.114;11.674;2023-03-23T15:56:20;2.77;;;0.40;;
60730;SDS011;46580;52.114;11.674;2023-03-23T15:58:47;0.90;;;0.50;;
60730;SDS011;46580;52.114;11.674;2023-03-23T16:03:53;0.50;;;0.33;;
60730;SDS011;46580;52.114;11.674;2023-03-23T16:06:22;0.37;;;0.37;;
60730;SDS011;46580;52.114;11.674;2023-03-23T16:08:50;0.30;;;0.30;;
60730;SDS011;46580;52.114;11.674;2023-03-23T16:11:16;2.00;;;0.40;;
60730;SDS011;46580;52.114;11.674;2023-03-23T16:13:43;0.70;;;0.30;;
60730;SDS011;46580;52.114;11.674;2023-03-23T16:16:13;0.60;;;0.33;;
60730;SDS011;46580;52.114;11.674;2023-03-23T16:18:40;2.00;;;0.70;;
60730;SDS011;46580;52.114;11.674;2023-03-23T16:21:07;2.97;;;0.77;;
60730;SDS011;46580;52.114;11.674;2023-03-23T16:23:32;3.00;;;1.00;;
60730;SDS011;46580;52.114;11.674;2023-03-23T16:25:58;1.67;;;1.00;;
60730;SDS011;46580;52.114;11.674;2023-03-23T16:28:23;3.00;;;0.90;;
60730;SDS011;46580;52.114;11.674;2023-03-23T16:30:49;7.20;;;1.60;;
60730;SDS011;46580;52.114;11.674;2023-03-23T16:33:14;3.20;;;1.17;;